Time;durP1;ratioP1;P1;durP2;ratioP2;P2;SDS_P1;SDS_P2;PMS_P1;PMS_P2;Temp;Humidity;BMP_temperature;BMP_pressure;BME280_temperature;BME280_humidity;BME280_pressure;Samples;Min_cycle;Max_cycle;Signal;HPM_P1;HPM_P2
2022/09/27 00:01:13;;;;;;;3.20;1.97;;;15.20;95.90;;;;;;4900883;29;20822;-75
2022/09/27 00:03:42;;;;;;;3.30;1.93;;;15.20;95.90;;;;;;4883945;29;20461;-75
2022/09/27 00:06:28;;;;;;;5.47;2.10;;;15.20;95.90;;;;;;4885466;29;20457;-74
2022/09/27 00:09:00;;;;;;;4.77;1.67;;;15.20;95.90;;;;;;4900044;29;20507;-74
2022/09/27 00:11:30;;;;;;;4.00;2.10;;;15.20;95.90;;;;;;4902423;29;20479;-74
2022/09/27 00:13:57;;;;;;;2.10;1.50;;;15.10;95.90;;;;;;4899796;29;20434;-75
2022/09/27 00:16:27;;;;;;;2.90;1.70;;;15.20;95.90;;;;;;4899299;29;20913;-75
2022/09/27 00:19:00;;;;;;;2.80;1.60;;;15.10;95.80;;;;;;4900001;29;20431;-74
2022/09/27 00:21:28;;;;;;;3.13;1.70;;;15.20;95.90;;;;;;4915025;29;20819;-74
2022/09/27 00:23:55;;;;;;;1.60;1.50;;;15.10;95.90;;;;;;4897708;29;20806;-75
2022/09/27 00:26:22;;;;;;;7.70;1.80;;;15.10;95.80;;;;;;4901405;29;20446;-75
2022/09/27 00:28:48;;;;;;;2.60;1.43;;;15.10;95.80;;;;;;4899341;29;20436;-74
2022/09/27 00:31:24;;;;;;;3.30;1.33;;;15.10;95.90;;;;;;4899391;29;20429;-75
2022/09/27 00:33:56;;;;;;;4.10;2.00;;;15.10;95.90;;;;;;4915199;29;20413;-74
2022/09/27 00:36:24;;;;;;;2.20;1.50;;;15.10;95.90;;;;;;4883536;29;20460;-74
2022/09/27 00:38:53;;;;;;;3.43;1.60;;;15.10;95.80;;;;;;4899328;29;20491;-75
2022/09/27 00:41:26;;;;;;;2.57;1.50;;;15.10;95.80;;;;;;4913973;29;20452;-74
2022/09/27 00:43:54;;;;;;;2.70;1.60;;;15.10;95.80;;;;;;4913318;29;20422;-74
2022/09/27 00:46:26;;;;;;;3.37;1.60;;;15.10;95.80;;;;;;4914658;29;20459;-74
2022/09/27 00:49:05;;;;;;;3.63;1.97;;;15.10;95.80;;;;;;4883049;29;20444;-74
2022/09/27 00:51:37;;;;;;;2.00;1.40;;;15.10;95.80;;;;;;4913605;29;20443;-74
2022/09/27 00:54:06;;;;;;;1.77;1.30;;;15.10;95.90;;;;;;4899880;29;20435;-74
2022/09/27 00:56:39;;;;;;;4.30;1.53;;;15.10;95.90;;;;;;4898591;29;20445;-74
2022/09/27 00:59:32;;;;;;;2.83;1.70;;;15.10;95.90;;;;;;4914135;29;20421;-74
2022/09/27 01:02:04;;;;;;;4.00;1.80;;;15.10;96.00;;;;;;4882248;29;20457;-74
2022/09/27 01:04:31;;;;;;;6.33;1.87;;;15.10;96.00;;;;;;4914232;29;20481;-74
2022/09/27 01:06:57;;;;;;;3.33;1.80;;;15.10;96.00;;;;;;4913292;29;20454;-74
2022/09/27 01:09:23;;;;;;;3.80;1.60;;;15.10;96.00;;;;;;4913854;29;20453;-74
2022/09/27 01:11:53;;;;;;;6.60;1.70;;;15.10;96.00;;;;;;4898633;29;20427;-74
2022/09/27 01:14:22;;;;;;;2.80;1.97;;;15.10;96.00;;;;;;4898335;29;20454;-74
2022/09/27 01:16:55;;;;;;;4.40;1.80;;;15.10;96.00;;;;;;4898566;29;20445;-74
2022/09/27 01:19:43;;;;;;;4.90;1.83;;;15.10;96.00;;;;;;4897953;29;20600;-74
2022/09/27 01:22:48;;;;;;;4.50;1.30;;;15.10;96.00;;;;;;4888397;29;20820;-74
2022/09/27 01:25:35;;;;;;;3.00;1.60;;;15.10;96.00;;;;;;4888011;29;20482;-74
2022/09/27 01:28:36;;;;;;;3.97;1.63;;;15.10;96.00;;;;;;4895290;29;20403;-74
2022/09/27 01:31:24;;;;;;;2.13;1.10;;;15.00;95.90;;;;;;4982982;23;21028;-73
2022/09/27 01:34:06;;;;;;;2.90;1.33;;;15.00;96.00;;;;;;4917263;29;20762;-73
2022/09/27 01:36:38;;;;;;;2.60;1.70;;;15.00;96.00;;;;;;4914867;29;20987;-73
2022/09/27 01:39:09;;;;;;;2.53;1.53;;;15.00;96.00;;;;;;4913046;29;20479;-73
2022/09/27 01:41:54;;;;;;;2.80;1.63;;;15.00;96.00;;;;;;4901970;29;20425;-72
2022/09/27 01:44:32;;;;;;;3.90;1.53;;;15.00;96.00;;;;;;4896915;29;20509;-73
2022/09/27 01:47:16;;;;;;;2.30;1.20;;;15.00;96.00;;;;;;4914413;29;20544;-72
2022/09/27 01:50:19;;;;;;;2.40;1.20;;;15.00;96.00;;;;;;4897316;29;20440;-72
2022/09/27 01:52:53;;;;;;;3.80;1.27;;;15.00;96.00;;;;;;4914504;29;20436;-73
2022/09/27 01:55:31;;;;;;;1.80;1.40;;;15.00;96.00;;;;;;4914933;29;20467;-72
2022/09/27 01:58:22;;;;;;;2.13;1.23;;;15.00;96.00;;;;;;4914703;29;20454;-72
2022/09/27 02:00:54;;;;;;;3.07;1.70;;;15.00;96.00;;;;;;4911474;29;20447;-72
2022/09/27 02:03:32;;;;;;;2.23;1.70;;;15.00;96.00;;;;;;4912068;29;20437;-72
2022/09/27 02:06:22;;;;;;;2.47;1.60;;;15.00;96.00;;;;;;4914186;29;20469;-73
2022/09/27 02:08:59;;;;;;;4.47;1.70;;;15.00;96.00;;;;;;4915282;29;20535;-72
2022/09/27 02:11:56;;;;;;;2.23;1.33;;;15.00;96.00;;;;;;4914261;29;20471;-73
2022/09/27 02:14:45;;;;;;;2.10;1.20;;;14.90;96.00;;;;;;4911705;29;20852;-73
2022/09/27 02:17:26;;;;;;;2.40;1.40;;;15.00;96.00;;;;;;4889281;29;20514;-73
2022/09/27 02:20:06;;;;;;;1.63;1.40;;;14.90;95.90;;;;;;4914521;29;20424;-72
2022/09/27 02:22:57;;;;;;;2.00;1.60;;;14.90;95.90;;;;;;4928521;29;20434;-72
2022/09/27 02:25:31;;;;;;;4.93;1.23;;;14.90;95.90;;;;;;4914335;29;21024;-72
2022/09/27 02:28:05;;;;;;;6.23;1.40;;;15.00;96.30;;;;;;4897524;29;20425;-73
2022/09/27 02:30:35;;;;;;;1.87;1.30;;;14.90;95.90;;;;;;4887845;29;20461;-73
2022/09/27 02:33:21;;;;;;;3.00;1.10;;;14.90;95.90;;;;;;4921088;29;20432;-73
2022/09/27 02:35:53;;;;;;;3.77;1.53;;;14.90;95.90;;;;;;4914905;29;20488;-72
2022/09/27 02:38:26;;;;;;;2.50;1.30;;;14.90;95.80;;;;;;4913702;29;20452;-72
2022/09/27 02:40:56;;;;;;;2.17;1.00;;;15.00;95.90;;;;;;4899439;29;20466;-72
2022/09/27 02:43:29;;;;;;;2.57;1.40;;;14.90;95.80;;;;;;4910775;29;20429;-72
2022/09/27 02:46:23;;;;;;;3.60;1.30;;;14.90;95.80;;;;;;4914670;29;20476;-72
2022/09/27 02:49:24;;;;;;;3.43;1.50;;;14.90;95.80;;;;;;4914852;29;20851;-72
2022/09/27 02:52:36;;;;;;;1.90;1.53;;;14.90;95.80;;;;;;4911407;29;20410;-72
2022/09/27 02:55:22;;;;;;;4.30;1.67;;;14.90;95.90;;;;;;4898878;29;20460;-72
2022/09/27 02:58:03;;;;;;;3.20;1.57;;;14.90;95.90;;;;;;4914437;29;20456;-73
2022/09/27 03:01:42;;;;;;;3.57;1.30;;;14.90;95.90;;;;;;4898285;29;20988;-73
2022/09/27 03:04:33;;;;;;;2.33;1.30;;;14.90;95.80;;;;;;4911922;29;20480;-72
2022/09/27 03:07:04;;;;;;;1.93;1.30;;;14.90;95.90;;;;;;4910358;29;20458;-73
2022/09/27 03:09:47;;;;;;;1.97;1.23;;;14.90;95.90;;;;;;4897713;29;20452;-72
2022/09/27 03:12:14;;;;;;;2.90;1.40;;;14.90;95.90;;;;;;4913643;29;20528;-72
2022/09/27 03:14:42;;;;;;;3.20;1.33;;;14.80;95.80;;;;;;4930030;29;20417;-72
2022/09/27 03:17:29;;;;;;;1.77;1.30;;;14.90;95.90;;;;;;4909835;29;20493;-72
2022/09/27 03:20:15;;;;;;;1.83;1.53;;;14.90;95.80;;;;;;4903248;29;20487;-73
2022/09/27 03:23:07;;;;;;;5.00;1.43;;;14.90;95.80;;;;;;4914470;29;20458;-72
2022/09/27 03:25:35;;;;;;;2.10;1.03;;;14.90;95.80;;;;;;4913333;29;20491;-72
2022/09/27 03:28:06;;;;;;;3.33;1.20;;;14.90;95.80;;;;;;4914039;29;20437;-73
2022/09/27 03:30:35;;;;;;;3.23;1.30;;;14.80;95.70;;;;;;4895104;29;20451;-72
2022/09/27 03:33:03;;;;;;;4.43;1.17;;;14.90;95.80;;;;;;4913993;29;20449;-73
2022/09/27 03:35:47;;;;;;;2.80;1.10;;;14.80;95.70;;;;;;4916206;29;20448;-73
2022/09/27 03:38:16;;;;;;;2.77;1.73;;;14.80;95.70;;;;;;4913709;29;20430;-74
2022/09/27 03:40:45;;;;;;;2.17;1.47;;;14.80;95.70;;;;;;4902849;29;20426;-73
2022/09/27 03:43:11;;;;;;;3.70;1.33;;;14.80;95.70;;;;;;4912358;29;20508;-73
2022/09/27 03:45:38;;;;;;;3.73;1.30;;;14.80;95.60;;;;;;4898362;29;20512;-73
2022/09/27 03:48:07;;;;;;;1.77;1.20;;;14.90;95.60;;;;;;4913529;29;20458;-73
2022/09/27 03:50:36;;;;;;;1.43;1.13;;;14.80;95.60;;;;;;4888354;29;20434;-73
2022/09/27 03:53:20;;;;;;;1.63;1.00;;;14.80;95.60;;;;;;4908629;29;20460;-73
2022/09/27 03:55:46;;;;;;;3.07;1.30;;;14.80;95.60;;;;;;4929987;29;20452;-73
2022/09/27 03:58:13;;;;;;;1.30;1.20;;;14.80;95.60;;;;;;4913788;29;20433;-73
2022/09/27 04:00:40;;;;;;;2.70;1.43;;;14.80;95.60;;;;;;4912153;29;20516;-73
2022/09/27 04:03:09;;;;;;;1.60;1.43;;;14.80;95.60;;;;;;4897531;29;20467;-74
2022/09/27 04:05:41;;;;;;;1.23;1.00;;;14.80;95.50;;;;;;4916422;29;20476;-74
2022/09/27 04:08:14;;;;;;;2.80;1.47;;;14.80;95.50;;;;;;4887558;29;20452;-73
2022/09/27 04:10:42;;;;;;;1.23;1.10;;;14.80;95.50;;;;;;4886741;29;21021;-73
2022/09/27 04:13:10;;;;;;;4.23;1.33;;;14.80;95.50;;;;;;4885756;29;20506;-73
2022/09/27 04:15:44;;;;;;;3.20;1.30;;;14.80;95.50;;;;;;4880586;29;20464;-73
2022/09/27 04:18:29;;;;;;;3.17;1.20;;;14.80;95.50;;;;;;4914202;29;20473;-73
2022/09/27 04:21:14;;;;;;;4.43;1.53;;;14.80;95.40;;;;;;4917526;29;20445;-73
2022/09/27 04:23:47;;;;;;;3.17;1.43;;;14.70;95.40;;;;;;4892602;29;20986;-74
2022/09/27 04:26:16;;;;;;;2.80;1.87;;;14.80;95.40;;;;;;4901697;29;20886;-74
2022/09/27 04:28:50;;;;;;;3.00;1.17;;;14.80;95.50;;;;;;4891659;29;20977;-75
2022/09/27 04:31:21;;;;;;;2.20;1.20;;;14.70;95.40;;;;;;4900503;29;20547;-76
2022/09/27 04:34:06;;;;;;;2.40;1.10;;;14.70;95.30;;;;;;4913597;29;20462;-75
2022/09/27 04:36:35;;;;;;;1.37;1.17;;;14.70;95.30;;;;;;4901668;29;20474;-75
2022/09/27 04:39:13;;;;;;;2.20;1.03;;;14.70;95.30;;;;;;4916164;29;20442;-75
2022/09/27 04:41:44;;;;;;;1.73;1.00;;;14.70;95.30;;;;;;4913757;29;20991;-75
2022/09/27 04:44:13;;;;;;;1.77;1.10;;;14.70;95.30;;;;;;4882826;29;20433;-75
2022/09/27 04:46:44;;;;;;;3.63;0.90;;;14.70;95.30;;;;;;4882895;29;20981;-75
2022/09/27 04:49:22;;;;;;;3.90;1.00;;;14.70;95.30;;;;;;4913240;29;20998;-75
2022/09/27 04:51:47;;;;;;;2.60;1.37;;;14.70;95.30;;;;;;4901019;29;20434;-75
2022/09/27 04:54:16;;;;;;;2.13;1.17;;;14.70;95.20;;;;;;4916009;29;20463;-75
2022/09/27 04:56:56;;;;;;;1.37;1.07;;;14.70;95.20;;;;;;4931974;29;20508;-75
2022/09/27 04:59:23;;;;;;;3.63;0.90;;;14.70;95.30;;;;;;4898059;29;20500;-74
2022/09/27 05:01:49;;;;;;;1.70;0.80;;;14.60;95.20;;;;;;4910777;29;20470;-75
2022/09/27 05:04:17;;;;;;;1.50;1.07;;;14.70;95.20;;;;;;4931054;29;20446;-75
2022/09/27 05:06:49;;;;;;;1.40;1.00;;;14.60;95.10;;;;;;4913375;29;20455;-75
2022/09/27 05:09:27;;;;;;;1.30;1.20;;;14.60;95.10;;;;;;4907748;29;20457;-75
2022/09/27 05:11:55;;;;;;;2.57;1.37;;;14.60;95.20;;;;;;4901199;29;20526;-75
2022/09/27 05:14:34;;;;;;;1.97;1.37;;;14.60;95.10;;;;;;4916801;29;20519;-75
2022/09/27 05:17:29;;;;;;;1.80;1.40;;;14.60;95.20;;;;;;4907455;29;20496;-75
2022/09/27 05:20:14;;;;;;;4.77;1.30;;;14.60;95.10;;;;;;4919122;29;20464;-74
2022/09/27 05:22:57;;;;;;;2.60;1.73;;;14.60;95.10;;;;;;4925663;29;20437;-75
2022/09/27 05:25:26;;;;;;;2.60;1.60;;;14.60;95.20;;;;;;4931806;29;20473;-74
2022/09/27 05:27:54;;;;;;;4.03;1.50;;;14.60;95.10;;;;;;4931886;29;20434;-75
2022/09/27 05:30:28;;;;;;;2.00;1.40;;;14.60;95.10;;;;;;4913901;29;20548;-74
2022/09/27 05:33:07;;;;;;;3.30;1.40;;;14.60;95.10;;;;;;4916752;29;20457;-74
2022/09/27 05:36:01;;;;;;;1.40;1.20;;;14.60;95.10;;;;;;4905257;29;20496;-75
2022/09/27 05:38:35;;;;;;;3.20;1.70;;;14.60;95.10;;;;;;4914528;29;20452;-75
2022/09/27 05:41:04;;;;;;;5.40;1.57;;;14.50;95.00;;;;;;4900272;29;20915;-75
2022/09/27 05:43:35;;;;;;;3.97;2.30;;;14.60;95.00;;;;;;4897148;29;20474;-75
2022/09/27 05:46:01;;;;;;;2.63;1.60;;;14.50;95.40;;;;;;4896853;29;20482;-74
2022/09/27 05:48:31;;;;;;;5.77;2.53;;;14.50;95.00;;;;;;4896946;29;20588;-75
2022/09/27 05:51:05;;;;;;;5.47;2.20;;;14.50;95.00;;;;;;4896901;29;20497;-74
2022/09/27 05:53:39;;;;;;;4.80;1.97;;;14.50;95.00;;;;;;4901895;29;20475;-75
2022/09/27 05:56:18;;;;;;;2.50;1.53;;;14.50;95.00;;;;;;4900490;29;20461;-74
2022/09/27 05:59:09;;;;;;;5.00;2.10;;;14.50;95.00;;;;;;4898920;29;20878;-74
2022/09/27 06:01:55;;;;;;;2.53;1.53;;;14.50;95.00;;;;;;4897688;29;20431;-75
2022/09/27 06:04:45;;;;;;;3.77;1.70;;;14.50;95.00;;;;;;4906368;29;20480;-75
2022/09/27 06:07:31;;;;;;;2.17;1.33;;;14.50;95.00;;;;;;4916211;29;20421;-74
2022/09/27 06:10:01;;;;;;;3.00;1.50;;;14.40;94.90;;;;;;4899503;29;20453;-74
2022/09/27 06:12:40;;;;;;;2.43;1.50;;;14.40;94.90;;;;;;4895337;29;20970;-74
2022/09/27 06:15:19;;;;;;;1.67;1.20;;;14.50;94.90;;;;;;4906075;29;20820;-75
2022/09/27 06:17:55;;;;;;;2.10;1.57;;;14.50;94.90;;;;;;4915427;29;20503;-74
2022/09/27 06:20:21;;;;;;;2.13;0.90;;;14.40;94.80;;;;;;4899184;29;20435;-74
2022/09/27 06:22:49;;;;;;;3.33;1.80;;;14.40;94.80;;;;;;4915091;29;20769;-74
2022/09/27 06:25:19;;;;;;;2.63;1.30;;;14.40;94.80;;;;;;4899037;29;20873;-74
2022/09/27 06:28:01;;;;;;;2.73;1.53;;;14.40;94.80;;;;;;4896682;29;20973;-74
2022/09/27 06:30:31;;;;;;;3.77;1.27;;;14.40;94.80;;;;;;4916491;29;20980;-75
2022/09/27 06:33:01;;;;;;;2.20;1.37;;;14.40;94.70;;;;;;4914863;29;20405;-75
2022/09/27 06:35:37;;;;;;;3.97;1.70;;;14.40;94.80;;;;;;4884407;29;20492;-74
2022/09/27 06:38:11;;;;;;;2.10;1.00;;;14.40;94.80;;;;;;4909011;29;20460;-75
2022/09/27 06:40:47;;;;;;;3.13;1.37;;;14.40;94.80;;;;;;4913215;29;20438;-74
2022/09/27 06:43:19;;;;;;;1.90;1.40;;;14.40;94.80;;;;;;4915271;29;20429;-75
2022/09/27 06:46:05;;;;;;;2.93;1.30;;;14.40;94.80;;;;;;4904514;29;20490;-75
2022/09/27 06:49:07;;;;;;;2.30;1.10;;;14.30;94.70;;;;;;4894317;29;20441;-75
2022/09/27 06:51:33;;;;;;;7.30;1.30;;;14.40;94.80;;;;;;4892024;29;20524;-74
2022/09/27 06:53:59;;;;;;;3.70;0.90;;;14.30;94.70;;;;;;4880053;29;20434;-74
2022/09/27 06:56:32;;;;;;;2.33;1.20;;;14.30;94.80;;;;;;4898774;29;20914;-74
2022/09/27 07:01:44;;;;;;;1.53;0.90;;;14.30;94.80;;;;;;4914930;29;20842;-74
2022/09/27 07:04:26;;;;;;;3.10;1.07;;;14.40;94.80;;;;;;4914253;29;20867;-74
2022/09/27 07:07:16;;;;;;;1.70;1.17;;;14.30;94.80;;;;;;4914306;29;20932;-74
2022/09/27 07:09:47;;;;;;;1.90;1.27;;;14.30;94.80;;;;;;4930101;29;20404;-74
2022/09/27 07:12:15;;;;;;;6.83;1.63;;;14.30;94.80;;;;;;4914773;29;20432;-74
2022/09/27 07:14:44;;;;;;;1.10;0.97;;;14.30;94.80;;;;;;4929756;29;20406;-74
2022/09/27 07:17:16;;;;;;;2.63;1.20;;;14.30;94.80;;;;;;4929664;29;20436;-74
2022/09/27 07:19:51;;;;;;;1.10;1.00;;;14.30;94.80;;;;;;4930084;29;20424;-74
2022/09/27 07:22:22;;;;;;;1.53;1.10;;;14.30;94.80;;;;;;4915683;29;20484;-74
2022/09/27 07:24:55;;;;;;;2.00;1.00;;;14.30;94.80;;;;;;4914082;29;20518;-74
2022/09/27 07:27:24;;;;;;;1.40;0.90;;;14.30;94.80;;;;;;4914704;29;20770;-74
2022/09/27 07:29:54;;;;;;;1.20;0.97;;;14.30;94.80;;;;;;4926080;29;21010;-74
2022/09/27 07:32:24;;;;;;;2.30;1.20;;;14.30;94.80;;;;;;4893634;29;20543;-74
2022/09/27 07:34:52;;;;;;;3.03;1.03;;;14.30;94.80;;;;;;4912971;29;21033;-74
2022/09/27 07:37:26;;;;;;;2.23;0.93;;;14.30;94.80;;;;;;4914143;29;20503;-74
2022/09/27 07:40:00;;;;;;;2.40;1.10;;;14.30;94.80;;;;;;4897992;29;20453;-74
2022/09/27 07:42:30;;;;;;;2.10;1.20;;;14.20;94.70;;;;;;4914219;29;20405;-74
2022/09/27 07:45:01;;;;;;;1.30;0.93;;;14.20;94.70;;;;;;4914067;29;20760;-74
2022/09/27 07:47:47;;;;;;;1.60;1.03;;;14.30;94.80;;;;;;4913991;29;20452;-74
2022/09/27 07:50:23;;;;;;;1.00;0.80;;;14.20;94.80;;;;;;4899585;29;20543;-74
2022/09/27 07:53:12;;;;;;;2.30;1.10;;;14.20;94.80;;;;;;4916912;29;20443;-74
2022/09/27 07:56:00;;;;;;;1.90;0.93;;;14.20;94.70;;;;;;4917450;29;20460;-74
2022/09/27 07:58:31;;;;;;;2.97;1.10;;;14.20;94.80;;;;;;4918901;29;20417;-74
2022/09/27 08:01:01;;;;;;;1.10;0.93;;;14.20;94.70;;;;;;4917116;29;20444;-74
2022/09/27 08:03:27;;;;;;;2.33;0.80;;;14.20;94.80;;;;;;4902014;29;20423;-74
2022/09/27 08:05:58;;;;;;;1.20;1.10;;;14.20;94.70;;;;;;4894928;29;21005;-74
2022/09/27 08:08:30;;;;;;;1.00;0.80;;;14.20;94.80;;;;;;4898913;29;20457;-74
2022/09/27 08:10:59;;;;;;;1.77;1.00;;;14.20;94.70;;;;;;4898726;29;20832;-74
2022/09/27 08:13:32;;;;;;;1.23;1.13;;;14.20;94.70;;;;;;4907662;29;20875;-74
2022/09/27 08:16:03;;;;;;;2.00;1.00;;;14.20;94.70;;;;;;4933165;29;20519;-74
2022/09/27 08:18:44;;;;;;;1.23;1.03;;;14.20;94.70;;;;;;4917433;29;20431;-74
2022/09/27 08:21:31;;;;;;;1.50;1.20;;;14.30;94.80;;;;;;4917187;29;20467;-74
2022/09/27 08:24:15;;;;;;;1.17;0.90;;;14.20;94.70;;;;;;4903735;29;20411;-74
2022/09/27 08:27:01;;;;;;;2.20;0.80;;;14.20;94.80;;;;;;4932992;29;20483;-73
2022/09/27 08:29:46;;;;;;;2.00;1.07;;;14.20;94.80;;;;;;4901759;29;20436;-74
2022/09/27 08:32:19;;;;;;;1.20;0.93;;;14.20;94.80;;;;;;4917355;29;20517;-74
2022/09/27 08:34:50;;;;;;;1.00;0.80;;;14.20;94.80;;;;;;4917498;29;20885;-74
2022/09/27 08:37:21;;;;;;;1.20;0.90;;;14.20;94.80;;;;;;4918185;29;20424;-74
2022/09/27 08:39:49;;;;;;;1.73;1.10;;;14.20;94.80;;;;;;4932713;29;20816;-74
2022/09/27 08:42:17;;;;;;;0.97;0.60;;;14.20;94.80;;;;;;4893044;29;20471;-74
2022/09/27 08:45:01;;;;;;;1.27;0.90;;;14.20;94.80;;;;;;4882393;29;20504;-74
2022/09/27 08:47:42;;;;;;;1.30;0.93;;;14.20;94.90;;;;;;4913079;29;20532;-74
2022/09/27 08:50:33;;;;;;;1.13;0.83;;;14.20;94.90;;;;;;4882834;29;20512;-74
2022/09/27 08:53:29;;;;;;;1.23;0.97;;;14.20;94.80;;;;;;4912645;29;20520;-74
2022/09/27 08:56:02;;;;;;;1.00;0.90;;;14.20;94.90;;;;;;4896178;29;20963;-74
2022/09/27 08:58:42;;;;;;;1.67;0.90;;;14.20;94.90;;;;;;4911916;29;20507;-74
2022/09/27 09:01:18;;;;;;;1.30;0.70;;;14.20;95.00;;;;;;4914614;29;20939;-74
2022/09/27 09:04:05;;;;;;;1.33;1.13;;;14.20;95.00;;;;;;4915681;29;20428;-75
2022/09/27 09:06:37;;;;;;;1.20;0.90;;;14.20;95.00;;;;;;4913935;29;20531;-74
2022/09/27 09:09:05;;;;;;;1.63;1.07;;;14.20;95.00;;;;;;4899294;29;20449;-73
2022/09/27 09:15:09;;;;;;;2.00;0.90;;;14.20;95.10;;;;;;4916837;29;20798;-74
2022/09/27 09:18:08;;;;;;;1.10;0.90;;;14.20;95.10;;;;;;4900683;29;20968;-74
2022/09/27 09:21:23;;;;;;;1.33;0.80;;;14.20;95.10;;;;;;4917357;29;20967;-74
2022/09/27 09:24:00;;;;;;;2.13;0.80;;;14.20;95.10;;;;;;4900567;29;20543;-74
2022/09/27 09:26:35;;;;;;;1.10;0.80;;;14.20;95.10;;;;;;4900295;29;20491;-74
2022/09/27 09:29:10;;;;;;;2.70;1.10;;;14.20;95.20;;;;;;4900612;29;20426;-74
2022/09/27 09:31:59;;;;;;;1.10;0.77;;;14.10;95.10;;;;;;4900734;29;20481;-74
2022/09/27 09:34:52;;;;;;;3.90;1.17;;;14.20;95.20;;;;;;4916121;29;20451;-74
2022/09/27 09:37:35;;;;;;;2.30;1.00;;;14.10;95.20;;;;;;4916059;29;20448;-74
2022/09/27 09:40:13;;;;;;;1.87;1.20;;;14.10;95.20;;;;;;5006282;23;20504;-75
2022/09/27 09:42:58;;;;;;;1.80;1.00;;;14.20;95.30;;;;;;4914640;29;20496;-76
2022/09/27 09:45:32;;;;;;;0.80;0.77;;;14.10;95.30;;;;;;4913110;29;20540;-76
2022/09/27 09:48:17;;;;;;;1.20;1.00;;;14.20;95.30;;;;;;4900477;29;20860;-76
2022/09/27 09:51:01;;;;;;;1.63;0.90;;;14.10;95.30;;;;;;4914745;29;20439;-76
2022/09/27 09:53:39;;;;;;;2.17;1.00;;;14.20;95.40;;;;;;4924816;29;20528;-75
2022/09/27 09:56:26;;;;;;;3.47;1.03;;;14.20;95.50;;;;;;4934783;29;20450;-75
2022/09/27 09:59:14;;;;;;;2.30;1.40;;;14.10;95.50;;;;;;4934754;29;20408;-75
2022/09/27 10:01:46;;;;;;;2.00;1.27;;;14.20;95.50;;;;;;4934544;29;20471;-75
2022/09/27 10:04:27;;;;;;;2.80;1.10;;;14.20;95.50;;;;;;4918612;29;20495;-75
2022/09/27 10:07:02;;;;;;;1.20;1.10;;;14.20;95.60;;;;;;4931238;29;20453;-76
2022/09/27 10:09:32;;;;;;;2.03;1.20;;;14.20;95.60;;;;;;4933631;29;20930;-75
2022/09/27 10:12:17;;;;;;;1.50;1.40;;;14.20;95.60;;;;;;4935937;29;20401;-75
2022/09/27 10:14:49;;;;;;;4.30;1.20;;;14.20;95.50;;;;;;4919129;29;20499;-75
2022/09/27 10:17:41;;;;;;;1.00;1.00;;;14.20;95.60;;;;;;4919760;29;20508;-74
2022/09/27 10:20:38;;;;;;;1.40;1.30;;;14.20;95.60;;;;;;4901966;29;20561;-75
2022/09/27 10:23:24;;;;;;;2.20;1.00;;;14.20;95.60;;;;;;4900040;29;20444;-75
2022/09/27 10:26:10;;;;;;;1.10;1.00;;;14.20;95.60;;;;;;4901453;29;20476;-75
2022/09/27 10:28:49;;;;;;;1.87;1.30;;;14.20;95.60;;;;;;4901011;29;20425;-76
2022/09/27 10:31:21;;;;;;;2.27;1.13;;;14.20;95.60;;;;;;4916439;29;20442;-76
2022/09/27 10:34:05;;;;;;;1.40;1.20;;;14.20;95.60;;;;;;4901880;29;20933;-75
2022/09/27 10:36:38;;;;;;;2.90;1.20;;;14.20;95.90;;;;;;4915142;29;20451;-76
2022/09/27 10:39:05;;;;;;;1.40;1.30;;;14.20;95.60;;;;;;4931324;29;20428;-75
2022/09/27 10:41:43;;;;;;;2.10;1.40;;;14.20;95.60;;;;;;4903856;29;20442;-75
2022/09/27 10:44:34;;;;;;;2.07;1.50;;;14.20;95.60;;;;;;4934008;29;20460;-75
2022/09/27 10:47:11;;;;;;;2.30;1.20;;;14.30;95.60;;;;;;4903439;29;20423;-75
2022/09/27 10:50:07;;;;;;;1.20;1.10;;;14.20;95.60;;;;;;4933683;29;20450;-75
2022/09/27 10:53:15;;;;;;;3.10;1.10;;;14.20;95.60;;;;;;4934720;29;20523;-75
2022/09/27 10:55:47;;;;;;;3.77;1.40;;;14.20;95.60;;;;;;4918101;29;20446;-75
2022/09/27 10:58:29;;;;;;;2.13;1.20;;;14.20;95.50;;;;;;4933871;29;20464;-75
2022/09/27 11:01:02;;;;;;;1.37;1.27;;;14.20;95.50;;;;;;4918215;29;20826;-75
2022/09/27 11:03:54;;;;;;;1.40;1.20;;;14.20;95.50;;;;;;4894781;29;20593;-76
2022/09/27 11:06:24;;;;;;;1.17;1.07;;;14.20;95.50;;;;;;4915828;29;20572;-75
2022/09/27 11:08:53;;;;;;;1.40;1.30;;;14.20;95.50;;;;;;4929301;29;20427;-76
2022/09/27 11:11:28;;;;;;;1.90;1.80;;;14.20;95.50;;;;;;4917996;29;20417;-75
2022/09/27 11:14:01;;;;;;;1.73;1.30;;;14.20;95.50;;;;;;4933980;29;20783;-76
2022/09/27 11:16:48;;;;;;;2.30;1.50;;;14.20;95.50;;;;;;4902175;29;20481;-75
2022/09/27 11:19:47;;;;;;;4.17;1.67;;;14.20;95.50;;;;;;4902023;29;20964;-75
2022/09/27 11:22:19;;;;;;;1.50;1.30;;;14.30;95.60;;;;;;4918476;29;20853;-75
2022/09/27 11:25:00;;;;;;;1.53;1.43;;;14.30;95.60;;;;;;4932576;29;20510;-76
2022/09/27 11:27:50;;;;;;;1.47;1.33;;;14.30;95.60;;;;;;4932979;29;20400;-75
2022/09/27 11:30:24;;;;;;;2.57;1.83;;;14.30;95.60;;;;;;4916755;29;20471;-75
2022/09/27 11:33:32;;;;;;;1.63;1.43;;;14.30;95.60;;;;;;4920472;29;20406;-75
2022/09/27 11:36:09;;;;;;;3.00;2.47;;;14.30;95.60;;;;;;4901746;29;20517;-75
2022/09/27 11:38:56;;;;;;;1.73;1.53;;;14.30;95.60;;;;;;4933410;29;20416;-75
2022/09/27 11:41:33;;;;;;;2.03;1.57;;;14.30;95.60;;;;;;4913938;29;20461;-75
2022/09/27 11:44:39;;;;;;;1.80;1.70;;;14.30;95.60;;;;;;4914484;29;20423;-76
2022/09/27 11:47:32;;;;;;;2.23;1.50;;;14.30;95.60;;;;;;4885551;29;20450;-75
2022/09/27 11:50:44;;;;;;;2.67;1.63;;;14.40;95.70;;;;;;4898407;29;20441;-76
2022/09/27 11:53:34;;;;;;;1.63;1.30;;;14.30;95.60;;;;;;4895344;29;20805;-75
2022/09/27 11:56:21;;;;;;;1.97;1.50;;;14.40;95.60;;;;;;4914011;29;20441;-76
2022/09/27 11:59:09;;;;;;;2.03;1.90;;;14.40;95.60;;;;;;4898419;29;20433;-75
2022/09/27 12:02:20;;;;;;;1.90;1.70;;;14.40;95.60;;;;;;4902379;29;20430;-75
2022/09/27 12:05:07;;;;;;;2.23;1.90;;;14.40;95.60;;;;;;4933050;29;20454;-76
2022/09/27 12:07:52;;;;;;;1.67;1.50;;;14.40;95.50;;;;;;4933422;29;20455;-75
2022/09/27 12:10:21;;;;;;;1.80;1.70;;;14.40;95.50;;;;;;4932943;29;20427;-75
2022/09/27 12:12:56;;;;;;;3.20;2.30;;;14.40;95.50;;;;;;4902003;29;20463;-76
2022/09/27 12:15:38;;;;;;;1.60;1.50;;;14.40;95.40;;;;;;4917143;29;20469;-75
2022/09/27 12:18:28;;;;;;;1.60;1.50;;;14.40;95.50;;;;;;4932622;29;20553;-75
2022/09/27 12:20:56;;;;;;;1.60;1.43;;;14.40;95.40;;;;;;4917113;29;20483;-75
2022/09/27 12:23:42;;;;;;;1.93;1.50;;;14.50;95.50;;;;;;4901835;29;20429;-75
2022/09/27 12:26:48;;;;;;;2.10;1.90;;;14.50;95.50;;;;;;4916846;29;20509;-75
2022/09/27 12:29:30;;;;;;;2.20;1.90;;;14.50;95.50;;;;;;4908822;29;20858;-75
2022/09/27 12:32:16;;;;;;;2.20;2.00;;;14.50;95.40;;;;;;4917653;29;21004;-75
2022/09/27 12:35:10;;;;;;;2.43;1.97;;;14.50;95.40;;;;;;4932728;29;20813;-76
2022/09/27 12:37:47;;;;;;;1.90;1.63;;;14.50;95.30;;;;;;4916336;29;20780;-76
2022/09/27 12:40:29;;;;;;;1.80;1.70;;;14.50;95.30;;;;;;4933665;29;20484;-76
2022/09/27 12:43:15;;;;;;;1.90;1.80;;;14.50;95.30;;;;;;4910731;29;20463;-76
2022/09/27 12:46:12;;;;;;;2.80;2.17;;;14.50;95.30;;;;;;4901709;29;20473;-76
2022/09/27 12:48:53;;;;;;;2.10;1.90;;;14.50;95.30;;;;;;4918263;29;20407;-76
2022/09/27 12:51:23;;;;;;;2.60;1.80;;;14.50;95.30;;;;;;4920674;29;20429;-76
2022/09/27 12:54:13;;;;;;;2.40;2.03;;;14.50;95.30;;;;;;4905490;29;20744;-76
2022/09/27 12:57:07;;;;;;;3.93;1.57;;;14.50;95.30;;;;;;4920351;29;20446;-76
2022/09/27 12:59:58;;;;;;;1.83;1.73;;;14.50;95.40;;;;;;4934855;29;20854;-76
2022/09/27 13:02:45;;;;;;;2.30;2.00;;;14.50;95.40;;;;;;4935785;29;20770;-76
2022/09/27 13:05:30;;;;;;;1.60;1.47;;;14.50;95.40;;;;;;4919761;29;20500;-76
2022/09/27 13:08:23;;;;;;;2.07;1.87;;;14.50;95.40;;;;;;4917044;29;20898;-76
2022/09/27 13:10:56;;;;;;;1.90;1.80;;;14.60;95.40;;;;;;4900827;29;20918;-76
2022/09/27 13:13:33;;;;;;;1.80;1.40;;;14.50;95.40;;;;;;4917183;29;20492;-76
2022/09/27 13:16:01;;;;;;;3.03;1.67;;;14.50;95.40;;;;;;4916805;29;20436;-76
2022/09/27 13:18:54;;;;;;;2.63;1.60;;;14.50;95.40;;;;;;4911562;29;20452;-76
2022/09/27 13:21:50;;;;;;;4.30;1.50;;;14.60;95.40;;;;;;4914176;29;20992;-76
2022/09/27 13:24:49;;;;;;;1.70;1.60;;;14.60;95.40;;;;;;4898276;29;20469;-76
2022/09/27 13:27:38;;;;;;;1.20;1.10;;;14.60;95.40;;;;;;4915322;29;20416;-76
2022/09/27 13:30:11;;;;;;;1.27;1.10;;;14.60;95.30;;;;;;4898188;29;20858;-76
2022/09/27 13:33:07;;;;;;;1.67;1.30;;;14.60;95.30;;;;;;4913735;29;20790;-76
2022/09/27 13:36:18;;;;;;;1.77;1.30;;;14.60;95.30;;;;;;4913973;29;20973;-76
2022/09/27 13:39:10;;;;;;;1.50;1.23;;;14.60;95.20;;;;;;4904802;29;20458;-76
2022/09/27 13:41:52;;;;;;;1.20;1.10;;;14.60;95.20;;;;;;4913356;29;20439;-76
2022/09/27 13:44:47;;;;;;;1.33;1.20;;;14.60;95.10;;;;;;4913790;29;20964;-76
2022/09/27 13:47:39;;;;;;;1.20;1.00;;;14.60;95.10;;;;;;4897922;29;20417;-76
2022/09/27 13:50:27;;;;;;;3.00;1.60;;;14.60;95.00;;;;;;4913679;29;20771;-76
2022/09/27 13:53:17;;;;;;;1.30;1.20;;;14.60;95.00;;;;;;4882830;29;20451;-76
2022/09/27 13:55:44;;;;;;;1.23;0.80;;;14.60;95.00;;;;;;4882102;29;20508;-76